Redruth, United Kingdom
Current Conditions -  °F | °C
As of 2:50 AM on Saturday 22 Nov 2014 (Local Time) from EGDR Reporting Station
Haze Haze  
Wind Chill: 55°   Ceiling: 300
Heat Index: 55°   Visibility: 2.5mi
Dew Point: 55°   Wind: 13mph
Humidity: 100%   Direction: 200°SSW
Pressure: 29.77"   Gusts: 24mph
Location:  50.23°N, 5.23°W
Report Text: EGDR 220250Z 20011G21KT 4000 BR FEW002 BKN003 BKN010 13/13 Q1008 YLO2
Loading
Personal Weather Stations






























Interactive Weather Map New forecast layout! Learn more

10-Day Weather Forecast

Advertisements
Track Severe Weather on mobile